createdAt,value
2022-10-26T00:02:00.678Z,1.80
2022-10-26T00:04:27.390Z,1.90
2022-10-26T00:06:54.061Z,1.40
2022-10-26T00:09:20.791Z,1.50
2022-10-26T00:11:47.448Z,1.73
2022-10-26T00:14:14.116Z,1.43
2022-10-26T00:16:41.020Z,1.13
2022-10-26T00:19:07.690Z,1.60
2022-10-26T00:21:34.435Z,1.20
2022-10-26T00:24:01.120Z,1.80
2022-10-26T00:26:27.783Z,1.40
2022-10-26T00:28:56.969Z,1.70
2022-10-26T00:31:24.653Z,2.13
2022-10-26T00:33:56.116Z,1.53
2022-10-26T00:36:24.252Z,1.70
2022-10-26T00:38:52.806Z,1.40
2022-10-26T00:41:25.162Z,1.43
2022-10-26T00:43:52.553Z,1.73
2022-10-26T00:46:26.620Z,1.40
2022-10-26T00:49:02.733Z,1.50
2022-10-26T00:51:36.688Z,1.37
2022-10-26T00:54:07.244Z,1.50
2022-10-26T00:56:36.096Z,1.30
2022-10-26T00:59:06.371Z,1.30
2022-10-26T01:01:35.013Z,1.20
2022-10-26T01:04:01.958Z,1.20
2022-10-26T01:06:31.185Z,1.27
2022-10-26T01:08:58.041Z,1.30
2022-10-26T01:11:24.716Z,1.60
2022-10-26T01:13:53.288Z,1.20
2022-10-26T01:16:48.544Z,1.20
2022-10-26T01:19:51.802Z,1.40
2022-10-26T01:22:43.244Z,1.47
2022-10-26T01:25:23.470Z,1.63
2022-10-26T01:27:53.056Z,1.43
2022-10-26T01:30:31.727Z,1.40
2022-10-26T01:33:22.262Z,1.37
2022-10-26T01:35:51.968Z,1.47
2022-10-26T01:38:35.048Z,1.33
2022-10-26T01:41:16.740Z,1.50
2022-10-26T01:43:54.105Z,1.30
2022-10-26T01:46:24.178Z,1.30
2022-10-26T01:48:55.449Z,1.23
2022-10-26T01:51:23.456Z,1.40
2022-10-26T01:53:50.208Z,1.37
2022-10-26T01:56:21.990Z,1.30
2022-10-26T01:59:26.832Z,1.30
2022-10-26T02:02:30.968Z,1.17
2022-10-26T02:05:00.432Z,1.27
2022-10-26T02:08:11.084Z,1.30
2022-10-26T02:10:46.713Z,1.37
2022-10-26T02:13:31.684Z,1.23
2022-10-26T02:16:38.934Z,1.30
2022-10-26T02:19:23.166Z,1.07
2022-10-26T02:21:54.692Z,1.40
2022-10-26T02:24:23.358Z,1.10
2022-10-26T02:26:53.016Z,1.20
2022-10-26T02:29:20.645Z,1.30
2022-10-26T02:31:49.549Z,0.80
2022-10-26T02:34:21.190Z,0.80
2022-10-26T02:36:49.346Z,1.07
2022-10-26T02:39:18.017Z,1.20
2022-10-26T02:41:45.909Z,0.90
2022-10-26T02:44:24.451Z,1.00
2022-10-26T02:46:52.924Z,1.10
2022-10-26T02:49:20.267Z,0.87
2022-10-26T02:52:16.142Z,1.00
2022-10-26T02:55:12.451Z,1.00
2022-10-26T02:57:42.366Z,0.77
2022-10-26T03:00:17.049Z,0.73
2022-10-26T03:02:48.337Z,1.10
2022-10-26T03:05:25.004Z,0.80
2022-10-26T03:07:51.941Z,1.40
2022-10-26T03:11:11.832Z,0.80
2022-10-26T03:13:38.521Z,1.03
2022-10-26T03:16:05.353Z,1.23
2022-10-26T03:18:32.020Z,0.90
2022-10-26T03:20:58.680Z,1.00
2022-10-26T03:23:25.424Z,0.93
2022-10-26T03:25:52.080Z,1.00
2022-10-26T03:28:18.728Z,1.20
2022-10-26T03:30:45.445Z,1.23
2022-10-26T03:33:12.193Z,0.70
2022-10-26T03:35:38.826Z,0.90
2022-10-26T03:38:05.726Z,0.90
2022-10-26T03:40:32.416Z,0.77
2022-10-26T03:42:59.144Z,1.10
2022-10-26T03:45:25.844Z,1.23
2022-10-26T03:47:52.856Z,1.00
2022-10-26T03:50:22.087Z,1.07
2022-10-26T03:52:50.162Z,1.00
2022-10-26T03:55:17.245Z,0.90
2022-10-26T03:57:45.365Z,1.10
2022-10-26T04:00:17.260Z,1.30
2022-10-26T04:02:49.942Z,0.90
2022-10-26T04:05:16.887Z,1.27
2022-10-26T04:07:43.856Z,1.53
2022-10-26T04:10:11.058Z,1.20
2022-10-26T04:12:38.627Z,1.07
2022-10-26T04:15:07.314Z,0.80
2022-10-26T04:17:34.564Z,0.87
2022-10-26T04:20:01.494Z,0.90
2022-10-26T04:22:28.502Z,0.90
2022-10-26T04:24:55.192Z,1.20
2022-10-26T04:27:22.040Z,1.03
2022-10-26T04:29:48.748Z,0.90
2022-10-26T04:32:15.556Z,1.00
2022-10-26T04:34:42.281Z,1.00
2022-10-26T04:37:08.953Z,0.97
2022-10-26T04:39:35.624Z,0.93
2022-10-26T04:42:02.331Z,1.00
2022-10-26T04:44:29.186Z,0.90
2022-10-26T04:46:55.877Z,1.20
2022-10-26T04:49:22.561Z,0.93
2022-10-26T04:51:49.242Z,1.10
2022-10-26T04:54:16.076Z,1.10
2022-10-26T04:56:42.872Z,0.90
2022-10-26T04:59:10.000Z,1.20
2022-10-26T05:01:36.887Z,0.97
2022-10-26T05:04:03.776Z,0.90
2022-10-26T05:06:30.492Z,1.20
2022-10-26T05:08:57.245Z,0.90
2022-10-26T05:11:23.975Z,0.90
2022-10-26T05:13:50.650Z,1.00
2022-10-26T05:16:17.437Z,0.80
2022-10-26T05:18:44.139Z,0.80
2022-10-26T05:21:12.484Z,1.20
2022-10-26T05:23:39.248Z,1.00
2022-10-26T05:26:06.060Z,0.97
2022-10-26T05:28:32.810Z,0.90
2022-10-26T05:30:59.882Z,0.90
2022-10-26T05:33:26.616Z,0.90
2022-10-26T05:35:56.134Z,0.73
2022-10-26T05:38:22.868Z,1.00
2022-10-26T05:40:50.240Z,0.90
2022-10-26T05:43:17.496Z,0.90
2022-10-26T05:45:44.628Z,1.00
2022-10-26T05:48:11.372Z,0.83
2022-10-26T05:50:38.379Z,1.10
2022-10-26T05:53:05.117Z,1.00
2022-10-26T05:55:32.380Z,1.20
2022-10-26T05:57:59.400Z,0.90
2022-10-26T06:00:28.408Z,1.03
2022-10-26T06:03:01.043Z,0.80
2022-10-26T06:05:30.542Z,0.97
2022-10-26T06:07:57.510Z,1.10
2022-10-26T06:10:24.576Z,0.90
2022-10-26T06:12:51.930Z,0.90
2022-10-26T06:15:21.272Z,1.37
2022-10-26T06:18:17.431Z,1.57
2022-10-26T06:21:07.282Z,1.50
2022-10-26T06:23:39.820Z,2.03
2022-10-26T06:26:18.093Z,1.70
2022-10-26T06:29:00.908Z,1.60
2022-10-26T06:31:27.774Z,2.07
2022-10-26T06:33:59.352Z,2.00
2022-10-26T06:36:28.244Z,3.20
2022-10-26T06:39:01.384Z,3.93
2022-10-26T06:41:30.818Z,4.97
2022-10-26T06:43:57.770Z,6.30
2022-10-26T06:46:43.742Z,7.00
2022-10-26T06:49:28.891Z,6.13
2022-10-26T06:51:59.823Z,5.03
2022-10-26T06:54:46.367Z,4.93
2022-10-26T06:57:15.736Z,4.57
2022-10-26T07:00:00.526Z,3.90
2022-10-26T07:02:27.370Z,3.37
2022-10-26T07:04:54.308Z,3.83
2022-10-26T07:07:23.664Z,3.30
2022-10-26T07:09:50.512Z,3.93
2022-10-26T07:12:17.526Z,2.97
2022-10-26T07:14:44.225Z,3.50
2022-10-26T07:17:11.698Z,3.47
2022-10-26T07:19:40.395Z,3.23
2022-10-26T07:22:07.084Z,2.57
2022-10-26T07:24:33.801Z,3.10
2022-10-26T07:27:00.514Z,2.90
2022-10-26T07:29:28.195Z,3.70
2022-10-26T07:34:26.665Z,3.40
2022-10-26T07:36:53.525Z,3.53
2022-10-26T07:39:20.233Z,3.60
2022-10-26T07:41:47.232Z,4.00
2022-10-26T07:44:13.908Z,3.70
2022-10-26T07:46:40.597Z,3.33
2022-10-26T07:49:07.257Z,2.90
2022-10-26T07:51:33.971Z,4.17
2022-10-26T07:54:00.857Z,3.40
2022-10-26T07:56:28.726Z,3.23
2022-10-26T07:58:56.033Z,3.30
2022-10-26T08:01:23.118Z,3.17
2022-10-26T08:03:53.464Z,3.30
2022-10-26T08:06:23.365Z,3.90
2022-10-26T08:08:51.792Z,3.33
2022-10-26T08:11:18.597Z,3.97
2022-10-26T08:13:45.358Z,3.60
2022-10-26T08:16:12.846Z,4.33
2022-10-26T08:18:39.581Z,3.50
2022-10-26T08:21:11.594Z,3.47
2022-10-26T08:23:41.124Z,3.20
2022-10-26T08:26:11.351Z,4.10
2022-10-26T08:28:38.970Z,3.53
2022-10-26T08:31:06.224Z,3.13
2022-10-26T08:33:33.589Z,3.50
2022-10-26T08:36:02.439Z,3.83
2022-10-26T08:38:29.824Z,3.80
2022-10-26T08:40:58.118Z,3.50
2022-10-26T08:43:46.790Z,3.63
2022-10-26T08:46:27.885Z,3.97
2022-10-26T08:49:04.630Z,3.27
2022-10-26T08:51:41.255Z,4.10
2022-10-26T08:54:19.296Z,3.83
2022-10-26T08:56:57.200Z,4.07
2022-10-26T08:59:47.628Z,3.90
2022-10-26T09:02:16.260Z,3.73
2022-10-26T09:04:43.569Z,4.10
2022-10-26T09:07:49.520Z,4.50
2022-10-26T09:11:07.451Z,3.90
2022-10-26T09:13:50.572Z,3.80
2022-10-26T09:16:39.788Z,3.87
2022-10-26T09:19:27.490Z,4.53
2022-10-26T09:22:15.268Z,4.70
2022-10-26T09:25:16.255Z,4.20
2022-10-26T09:27:48.666Z,4.27
2022-10-26T09:30:21.394Z,4.87
2022-10-26T09:32:51.131Z,4.63
2022-10-26T09:35:33.392Z,4.33
2022-10-26T09:38:28.709Z,5.20
2022-10-26T09:41:05.841Z,4.33
2022-10-26T09:46:24.978Z,5.00
2022-10-26T09:48:56.091Z,5.80
2022-10-26T09:51:27.200Z,5.87
2022-10-26T09:53:56.229Z,5.80
2022-10-26T09:56:24.424Z,5.40
2022-10-26T09:59:02.017Z,5.40
2022-10-26T10:01:36.766Z,5.00
2022-10-26T10:04:22.597Z,6.10
2022-10-26T10:07:13.119Z,6.10
2022-10-26T10:09:39.815Z,6.17
2022-10-26T10:12:18.515Z,5.60
2022-10-26T10:14:57.184Z,5.40
2022-10-26T10:17:24.817Z,5.67
2022-10-26T10:19:52.173Z,7.10
2022-10-26T10:22:25.893Z,7.03
2022-10-26T10:25:03.860Z,7.40
2022-10-26T10:27:33.362Z,8.00
2022-10-26T10:30:27.426Z,7.73
2022-10-26T10:33:11.003Z,7.77
2022-10-26T10:35:47.220Z,8.03
2022-10-26T10:38:18.067Z,7.30
2022-10-26T10:40:58.036Z,7.50
2022-10-26T10:43:25.739Z,8.07
2022-10-26T10:45:57.179Z,7.90
2022-10-26T10:48:28.151Z,7.10
2022-10-26T10:51:13.003Z,6.97
2022-10-26T10:53:52.007Z,7.13
2022-10-26T10:56:35.409Z,7.13
2022-10-26T10:59:40.035Z,7.37
2022-10-26T11:02:15.745Z,6.77
2022-10-26T11:05:05.329Z,6.80
2022-10-26T11:07:41.264Z,6.83
2022-10-26T11:10:15.289Z,6.50
2022-10-26T11:13:07.082Z,6.13
2022-10-26T11:15:37.179Z,6.53
2022-10-26T11:18:17.945Z,6.47
2022-10-26T11:20:54.010Z,6.60
2022-10-26T11:23:34.710Z,7.20
2022-10-26T11:26:06.289Z,6.97
2022-10-26T11:28:50.776Z,6.37
2022-10-26T11:31:25.778Z,6.93
2022-10-26T11:34:20.137Z,7.20
2022-10-26T11:36:52.235Z,6.60
2022-10-26T11:39:44.847Z,7.50
2022-10-26T11:42:30.521Z,6.90
2022-10-26T11:45:03.421Z,7.47
2022-10-26T11:47:38.482Z,6.67
2022-10-26T11:50:27.128Z,7.20
2022-10-26T11:53:15.063Z,7.13
2022-10-26T11:55:43.938Z,6.90
2022-10-26T11:58:13.125Z,6.73
2022-10-26T12:00:55.543Z,6.63
2022-10-26T12:03:36.521Z,7.00
2022-10-26T12:06:03.828Z,7.10
2022-10-26T12:08:41.792Z,6.90
2022-10-26T12:11:28.852Z,6.60
2022-10-26T12:14:03.321Z,7.07
2022-10-26T12:16:48.738Z,6.87
2022-10-26T12:19:21.329Z,6.87
2022-10-26T12:21:50.797Z,6.50
2022-10-26T12:24:26.305Z,6.77
2022-10-26T12:27:04.995Z,9.33
2022-10-26T12:29:45.185Z,12.40
2022-10-26T12:32:30.640Z,14.27
2022-10-26T12:34:59.891Z,14.87
2022-10-26T12:37:37.255Z,14.13
2022-10-26T12:40:39.908Z,15.87
2022-10-26T12:43:18.601Z,15.17
2022-10-26T12:45:46.922Z,15.93
2022-10-26T12:48:40.933Z,13.23
2022-10-26T12:51:22.709Z,13.43
2022-10-26T12:54:04.714Z,14.40
2022-10-26T12:56:45.908Z,14.10
2022-10-26T12:59:42.285Z,13.20
2022-10-26T13:02:36.076Z,11.80
2022-10-26T13:05:20.764Z,13.40
2022-10-26T13:07:47.628Z,13.47
2022-10-26T13:10:14.528Z,13.17
2022-10-26T13:12:56.538Z,10.90
2022-10-26T13:15:27.874Z,12.17
2022-10-26T13:18:00.193Z,10.90
2022-10-26T13:20:29.161Z,10.63
2022-10-26T13:22:55.999Z,11.20
2022-10-26T13:25:27.400Z,12.30
2022-10-26T13:28:27.156Z,10.40
2022-10-26T13:30:53.918Z,9.90
2022-10-26T13:33:24.361Z,11.00
2022-10-26T13:35:53.908Z,11.60
2022-10-26T13:38:24.351Z,10.43
2022-10-26T13:40:58.038Z,10.53
2022-10-26T13:43:26.843Z,9.40
2022-10-26T13:45:56.416Z,10.30
2022-10-26T13:48:36.096Z,10.17
2022-10-26T13:51:20.738Z,9.87
2022-10-26T13:54:33.002Z,10.03
2022-10-26T13:57:27.878Z,9.73
2022-10-26T14:00:00.089Z,10.00
2022-10-26T14:02:30.475Z,9.10
2022-10-26T14:05:01.656Z,8.83
2022-10-26T14:07:34.609Z,8.50
2022-10-26T14:10:01.462Z,9.70
2022-10-26T14:12:29.047Z,9.87
2022-10-26T14:15:06.910Z,9.30
2022-10-26T14:17:33.778Z,9.30
2022-10-26T14:20:01.416Z,9.23
2022-10-26T14:22:30.049Z,9.00
2022-10-26T14:24:59.204Z,9.30
2022-10-26T14:27:38.296Z,8.90
2022-10-26T14:30:24.884Z,9.50
2022-10-26T14:32:53.102Z,9.40
2022-10-26T14:35:25.417Z,9.10
2022-10-26T14:37:56.918Z,8.80
2022-10-26T14:40:27.841Z,8.90
2022-10-26T14:42:57.626Z,10.03
2022-10-26T14:45:49.374Z,9.00
2022-10-26T14:48:30.503Z,9.30
2022-10-26T14:51:07.118Z,8.77
2022-10-26T14:53:39.857Z,8.83
2022-10-26T14:56:31.783Z,9.37
2022-10-26T14:58:59.341Z,9.17
2022-10-26T15:01:31.637Z,8.93
2022-10-26T15:04:05.901Z,9.40
2022-10-26T15:06:38.414Z,8.40
2022-10-26T15:09:06.740Z,9.07
2022-10-26T15:11:35.112Z,8.17
2022-10-26T15:14:02.500Z,8.07
2022-10-26T15:16:32.776Z,8.43
2022-10-26T15:19:11.610Z,8.73
2022-10-26T15:21:45.453Z,9.57
2022-10-26T15:24:21.036Z,8.50
2022-10-26T15:26:48.241Z,9.40
2022-10-26T15:29:42.399Z,9.90
2022-10-26T15:32:25.253Z,8.57
2022-10-26T15:35:12.472Z,9.47
2022-10-26T15:37:39.812Z,8.80
2022-10-26T15:40:07.162Z,9.57
2022-10-26T15:42:38.171Z,8.13
2022-10-26T15:45:14.042Z,8.97
2022-10-26T15:47:40.714Z,8.40
2022-10-26T15:50:13.113Z,8.50
2022-10-26T15:52:39.844Z,10.30
2022-10-26T15:55:06.893Z,9.83
2022-10-26T15:57:33.633Z,9.37
2022-10-26T16:00:00.345Z,9.60
2022-10-26T16:02:27.972Z,8.43
2022-10-26T16:04:55.899Z,8.90
2022-10-26T16:07:27.084Z,9.90
2022-10-26T16:09:54.533Z,9.53
2022-10-26T16:12:21.236Z,10.23
2022-10-26T16:15:04.421Z,10.87
2022-10-26T16:17:33.165Z,9.77
2022-10-26T16:20:02.286Z,9.03
2022-10-26T16:22:31.029Z,8.70
2022-10-26T16:24:59.410Z,9.20
2022-10-26T16:27:26.099Z,10.40
2022-10-26T16:29:52.781Z,9.20
2022-10-26T16:32:19.448Z,9.03
2022-10-26T16:34:46.329Z,9.40
2022-10-26T16:37:13.014Z,10.80
2022-10-26T16:39:39.685Z,9.90
2022-10-26T16:42:06.838Z,9.40
2022-10-26T16:44:33.487Z,9.20
2022-10-26T16:47:00.217Z,8.23
2022-10-26T16:49:26.898Z,9.20
2022-10-26T16:51:53.616Z,10.20
2022-10-26T16:54:20.393Z,8.77
2022-10-26T16:56:47.087Z,9.33
2022-10-26T16:59:13.841Z,9.30
2022-10-26T17:01:40.652Z,9.03
2022-10-26T17:04:07.518Z,9.67
2022-10-26T17:06:34.320Z,9.23
2022-10-26T17:09:01.075Z,9.10
2022-10-26T17:11:27.781Z,10.07
2022-10-26T17:13:55.185Z,9.77
2022-10-26T17:16:23.655Z,9.40
2022-10-26T17:18:51.411Z,10.67
2022-10-26T17:21:20.302Z,9.40
2022-10-26T17:23:47.055Z,9.53
2022-10-26T17:26:15.061Z,9.20
2022-10-26T17:28:42.071Z,9.63
2022-10-26T17:31:15.920Z,10.90
2022-10-26T17:33:43.928Z,8.90
2022-10-26T17:36:13.164Z,9.47
2022-10-26T17:38:42.145Z,10.80
2022-10-26T17:41:11.635Z,9.40
2022-10-26T17:43:40.190Z,10.17
2022-10-26T17:46:12.459Z,9.80
2022-10-26T17:48:39.637Z,10.90
2022-10-26T17:51:11.263Z,11.70
2022-10-26T17:53:37.929Z,11.63
2022-10-26T17:56:11.452Z,12.93
2022-10-26T17:58:38.746Z,11.80
2022-10-26T18:01:11.554Z,12.33
2022-10-26T18:03:39.996Z,12.60
2022-10-26T18:06:07.597Z,12.73
2022-10-26T18:08:35.370Z,12.20
2022-10-26T18:11:02.451Z,13.13
2022-10-26T18:13:31.471Z,12.27
2022-10-26T18:16:11.280Z,11.33
2022-10-26T18:18:39.220Z,12.03
2022-10-26T18:21:10.916Z,13.13
2022-10-26T18:23:38.215Z,10.93
2022-10-26T18:26:14.066Z,11.77
2022-10-26T18:28:41.424Z,12.47
2022-10-26T18:34:35.671Z,10.30
2022-10-26T18:37:02.547Z,11.17
2022-10-26T18:39:29.231Z,11.50
2022-10-26T18:41:55.974Z,11.30
2022-10-26T18:44:22.773Z,9.67
2022-10-26T18:46:51.931Z,10.77
2022-10-26T18:49:20.461Z,10.80
2022-10-26T18:51:48.481Z,9.80
2022-10-26T18:54:15.255Z,11.57
2022-10-26T18:56:42.271Z,10.20
2022-10-26T18:59:09.222Z,9.40
2022-10-26T19:01:39.816Z,11.00
2022-10-26T19:04:08.564Z,9.43
2022-10-26T19:06:48.089Z,9.50
2022-10-26T19:09:17.291Z,11.27
2022-10-26T19:11:44.315Z,9.07
2022-10-26T19:14:12.415Z,9.60
2022-10-26T19:16:47.548Z,9.27
2022-10-26T19:19:16.084Z,9.07
2022-10-26T19:21:43.081Z,8.80
2022-10-26T19:24:16.499Z,9.90
2022-10-26T19:26:44.266Z,8.77
2022-10-26T19:29:16.738Z,9.70
2022-10-26T19:31:48.473Z,9.73
2022-10-26T19:34:16.677Z,9.33
2022-10-26T19:36:45.892Z,9.60
2022-10-26T19:39:14.727Z,8.53
2022-10-26T19:41:41.892Z,9.00
2022-10-26T19:44:10.908Z,8.47
2022-10-26T19:46:38.063Z,9.20
2022-10-26T19:49:05.009Z,9.03
2022-10-26T19:51:31.899Z,9.00
2022-10-26T19:54:03.192Z,7.80
2022-10-26T19:56:31.179Z,8.90
2022-10-26T19:58:57.910Z,9.80
2022-10-26T20:01:24.829Z,12.10
2022-10-26T20:03:51.588Z,11.77
2022-10-26T20:06:18.596Z,10.83
2022-10-26T20:08:47.949Z,10.67
2022-10-26T20:11:16.766Z,10.67
2022-10-26T20:13:45.007Z,10.97
2022-10-26T20:16:12.729Z,11.00
2022-10-26T20:18:43.938Z,10.33
2022-10-26T20:21:14.894Z,9.80
2022-10-26T20:23:42.685Z,10.90
2022-10-26T20:26:10.231Z,10.20
2022-10-26T20:28:38.546Z,10.17
2022-10-26T20:31:05.415Z,11.33
2022-10-26T20:33:32.075Z,10.50
2022-10-26T20:35:59.329Z,10.37
2022-10-26T20:38:26.470Z,10.00
2022-10-26T20:40:58.704Z,10.20
2022-10-26T20:43:26.997Z,10.97
2022-10-26T20:45:54.487Z,10.90
2022-10-26T20:48:22.044Z,11.13
2022-10-26T20:51:05.313Z,10.60
2022-10-26T20:53:38.019Z,10.03
2022-10-26T20:56:19.836Z,10.50
2022-10-26T20:58:49.144Z,11.03
2022-10-26T21:01:29.151Z,10.00
2022-10-26T21:03:57.847Z,10.30
2022-10-26T21:06:25.431Z,10.80
2022-10-26T21:08:53.735Z,10.63
2022-10-26T21:11:21.519Z,10.57
2022-10-26T21:13:49.425Z,10.80
2022-10-26T21:16:17.701Z,11.63
2022-10-26T21:18:44.682Z,10.20
2022-10-26T21:21:11.593Z,10.70
2022-10-26T21:23:40.151Z,11.10
2022-10-26T21:26:08.075Z,10.90
2022-10-26T21:28:41.657Z,11.30
2022-10-26T21:31:13.415Z,9.90
2022-10-26T21:33:40.231Z,9.97
2022-10-26T21:36:09.754Z,10.30
2022-10-26T21:38:36.447Z,9.67
2022-10-26T21:41:08.909Z,10.40
2022-10-26T21:43:38.672Z,10.00
2022-10-26T21:46:06.631Z,10.60
2022-10-26T21:48:34.281Z,9.70
2022-10-26T21:51:05.593Z,9.47
2022-10-26T21:53:32.415Z,9.53
2022-10-26T21:56:00.635Z,10.03
2022-10-26T21:58:27.759Z,10.17
2022-10-26T22:00:54.703Z,9.57
2022-10-26T22:03:21.446Z,9.90
2022-10-26T22:05:52.216Z,10.27
2022-10-26T22:08:19.662Z,9.00
2022-10-26T22:10:46.330Z,9.30
2022-10-26T22:13:13.093Z,9.37
2022-10-26T22:15:39.750Z,9.20
2022-10-26T22:18:06.453Z,9.50
2022-10-26T22:20:33.199Z,8.67
2022-10-26T22:22:59.899Z,9.50
2022-10-26T22:25:26.591Z,8.20
2022-10-26T22:27:53.492Z,9.03
2022-10-26T22:30:20.693Z,9.20
2022-10-26T22:32:47.516Z,9.13
2022-10-26T22:35:30.260Z,9.73
2022-10-26T22:37:57.024Z,8.20
2022-10-26T22:40:23.735Z,8.67
2022-10-26T22:42:53.855Z,8.33
2022-10-26T22:45:20.576Z,9.17
2022-10-26T22:47:47.299Z,8.30
2022-10-26T22:50:14.046Z,8.10
2022-10-26T22:52:40.750Z,8.80
2022-10-26T22:55:07.999Z,7.80
2022-10-26T22:57:34.665Z,8.90
2022-10-26T23:00:01.340Z,9.40
2022-10-26T23:02:28.059Z,8.37
2022-10-26T23:04:54.766Z,7.37
2022-10-26T23:07:21.478Z,8.37
2022-10-26T23:09:48.136Z,7.20
2022-10-26T23:12:14.815Z,8.80
2022-10-26T23:14:41.471Z,7.33
2022-10-26T23:17:09.978Z,7.80
2022-10-26T23:19:36.629Z,8.10
2022-10-26T23:22:03.290Z,7.30
2022-10-26T23:24:29.989Z,7.10
2022-10-26T23:26:56.757Z,7.93
2022-10-26T23:29:23.413Z,7.40
2022-10-26T23:31:50.069Z,7.20
2022-10-26T23:34:16.730Z,6.20
2022-10-26T23:36:43.391Z,7.07
2022-10-26T23:39:10.089Z,7.43
2022-10-26T23:41:36.753Z,7.00
2022-10-26T23:44:03.629Z,7.07
2022-10-26T23:46:30.370Z,8.00
2022-10-26T23:48:57.091Z,7.40
2022-10-26T23:51:23.859Z,6.80
2022-10-26T23:53:50.585Z,7.10
2022-10-26T23:56:17.281Z,7.10
2022-10-26T23:58:43.965Z,6.90
